Time;durP1;ratioP1;P1;durP2;ratioP2;P2;SDS_P1;SDS_P2;PMS_P1;PMS_P2;Temp;Humidity;BMP_temperature;BMP_pressure;BME280_temperature;BME280_humidity;BME280_pressure;Samples;Min_cycle;Max_cycle;Signal;HPM_P1;HPM_P2
2022/10/13 00:01:56;;;;;;;6.22;3.38;;;;;;;;;;5033156;28;20394;-83
2022/10/13 00:04:22;;;;;;;9.05;4.10;;;;;;;;;;5033522;28;20031;-83
2022/10/13 00:06:48;;;;;;;5.72;3.38;;;;;;;;;;5033231;28;20028;-83
2022/10/13 00:09:15;;;;;;;6.53;3.63;;;;;;;;;;5032948;28;20037;-83
2022/10/13 00:11:41;;;;;;;8.32;3.78;;;;;;;;;;5033338;28;20022;-83
2022/10/13 00:14:07;;;;;;;6.15;3.40;;;;;;;;;;5032957;28;20049;-83
2022/10/13 00:16:35;;;;;;;5.88;3.30;;;;;;;;;;5033010;28;20441;-82
2022/10/13 00:19:01;;;;;;;7.88;3.63;;;;;;;;;;5033086;28;20487;-83
2022/10/13 00:21:28;;;;;;;8.90;3.70;;;;;;;;;;5032867;28;20029;-83
2022/10/13 00:23:55;;;;;;;6.40;3.63;;;;;;;;;;5032478;28;20432;-83
2022/10/13 00:26:23;;;;;;;7.38;3.38;;;;;;;;;;5032923;28;20033;-83
2022/10/13 00:28:49;;;;;;;7.70;3.20;;;;;;;;;;5032675;28;20030;-83
2022/10/13 00:31:19;;;;;;;6.78;3.72;;;;;;;;;;5032810;28;20039;-83
2022/10/13 00:33:46;;;;;;;7.07;3.50;;;;;;;;;;5033027;28;20037;-83
2022/10/13 00:36:12;;;;;;;4.28;3.20;;;;;;;;;;5032578;28;20503;-83
2022/10/13 00:38:38;;;;;;;6.85;3.20;;;;;;;;;;5032151;28;20497;-83
2022/10/13 00:41:05;;;;;;;4.60;3.30;;;;;;;;;;5032469;28;20033;-83
2022/10/13 00:43:47;;;;;;;7.07;3.60;;;;;;;;;;5032324;28;20445;-82
2022/10/13 00:46:14;;;;;;;8.20;3.45;;;;;;;;;;5032512;28;20072;-83
2022/10/13 00:48:41;;;;;;;3.75;2.72;;;;;;;;;;5032671;28;20047;-83
2022/10/13 00:51:08;;;;;;;7.57;3.25;;;;;;;;;;5032147;28;20029;-83
2022/10/13 00:53:36;;;;;;;9.63;3.35;;;;;;;;;;5031715;28;20029;-82
2022/10/13 00:56:03;;;;;;;6.03;3.03;;;;;;;;;;5032277;28;20056;-83
2022/10/13 00:58:31;;;;;;;7.18;3.17;;;;;;;;;;5032406;28;20401;-83
2022/10/13 01:00:58;;;;;;;8.07;3.22;;;;;;;;;;5032233;28;20028;-82
2022/10/13 01:03:27;;;;;;;6.43;3.40;;;;;;;;;;5032334;28;20037;-82
2022/10/13 01:05:55;;;;;;;6.07;3.88;;;;;;;;;;5032551;28;20029;-83
2022/10/13 01:08:22;;;;;;;10.40;3.65;;;;;;;;;;5031637;28;20052;-82
2022/10/13 01:11:02;;;;;;;8.57;3.40;;;;;;;;;;5032359;28;20018;-83
2022/10/13 01:13:35;;;;;;;10.95;3.50;;;;;;;;;;5032424;28;20050;-83
2022/10/13 01:16:09;;;;;;;8.45;3.45;;;;;;;;;;5031992;28;20093;-83
2022/10/13 01:18:50;;;;;;;7.82;3.50;;;;;;;;;;5032541;28;20022;-83
2022/10/13 01:21:24;;;;;;;7.47;3.40;;;;;;;;;;5031659;28;20029;-83
2022/10/13 01:24:01;;;;;;;8.00;3.80;;;;;;;;;;5031893;28;20013;-83
2022/10/13 01:26:37;;;;;;;6.60;3.42;;;;;;;;;;5032005;28;20022;-83
2022/10/13 01:29:12;;;;;;;7.93;3.22;;;;;;;;;;5032158;28;20521;-83
2022/10/13 01:31:52;;;;;;;7.50;3.72;;;;;;;;;;5031938;28;20021;-83
2022/10/13 01:34:26;;;;;;;4.82;3.42;;;;;;;;;;5032001;28;20478;-83
2022/10/13 01:37:04;;;;;;;6.18;3.25;;;;;;;;;;5031867;28;20026;-83
2022/10/13 01:39:42;;;;;;;7.93;3.88;;;;;;;;;;5031938;28;20029;-83
2022/10/13 01:42:13;;;;;;;8.00;3.55;;;;;;;;;;5032087;28;20020;-83
2022/10/13 01:44:43;;;;;;;6.45;3.83;;;;;;;;;;5031609;28;20024;-83
2022/10/13 01:47:10;;;;;;;9.27;4.43;;;;;;;;;;5031741;28;20032;-83
2022/10/13 01:49:37;;;;;;;11.88;4.72;;;;;;;;;;5031533;28;20032;-82
2022/10/13 01:52:08;;;;;;;10.93;4.28;;;;;;;;;;5031447;28;20052;-83
2022/10/13 01:54:34;;;;;;;9.77;4.32;;;;;;;;;;5031712;28;20028;-83
2022/10/13 01:57:01;;;;;;;9.38;4.20;;;;;;;;;;5031710;28;20025;-83
2022/10/13 01:59:29;;;;;;;6.10;4.05;;;;;;;;;;5030330;28;20025;-82
2022/10/13 02:02:04;;;;;;;4.93;3.58;;;;;;;;;;5031607;28;20028;-83
2022/10/13 02:04:46;;;;;;;9.32;3.88;;;;;;;;;;5033406;28;20033;-83
2022/10/13 02:07:12;;;;;;;;;;;;;;;;;;5035853;28;20036;-83
2022/10/13 02:09:52;;;;;;;8.55;4.15;;;;;;;;;;5035487;28;19909;-82
2022/10/13 02:12:30;;;;;;;11.40;3.97;;;;;;;;;;5035578;28;20029;-83
2022/10/13 02:14:58;;;;;;;7.07;3.83;;;;;;;;;;5035190;28;20038;-82
2022/10/13 02:17:26;;;;;;;5.32;3.58;;;;;;;;;;5035303;28;20038;-82
2022/10/13 02:19:53;;;;;;;6.65;3.78;;;;;;;;;;5033534;28;20026;-82
2022/10/13 02:22:20;;;;;;;7.32;3.97;;;;;;;;;;5034139;28;20033;-82
2022/10/13 02:24:46;;;;;;;12.23;4.20;;;;;;;;;;5035120;28;20029;-82
2022/10/13 02:27:13;;;;;;;8.23;3.70;;;;;;;;;;5034821;28;20028;-82
2022/10/13 02:29:49;;;;;;;5.80;3.55;;;;;;;;;;5035084;28;20037;-82
2022/10/13 02:32:16;;;;;;;12.80;4.00;;;;;;;;;;5035052;28;20026;-83
2022/10/13 02:34:42;;;;;;;7.65;3.92;;;;;;;;;;5034551;28;20036;-82
2022/10/13 02:37:08;;;;;;;9.57;3.63;;;;;;;;;;5035061;28;20036;-83
2022/10/13 02:39:35;;;;;;;11.52;4.40;;;;;;;;;;5034671;28;20026;-81
2022/10/13 02:42:01;;;;;;;10.40;4.13;;;;;;;;;;5035120;28;20022;-82
2022/10/13 02:44:27;;;;;;;6.70;3.65;;;;;;;;;;5034595;28;20025;-82
2022/10/13 02:46:54;;;;;;;12.05;3.80;;;;;;;;;;5034678;28;20382;-82
2022/10/13 02:49:20;;;;;;;4.35;3.72;;;;;;;;;;5034087;28;20394;-82
2022/10/13 02:51:46;;;;;;;8.88;3.50;;;;;;;;;;5034509;28;20036;-82
2022/10/13 02:54:13;;;;;;;9.43;3.92;;;;;;;;;;5034348;28;20034;-82
2022/10/13 02:56:39;;;;;;;10.18;3.70;;;;;;;;;;5034574;28;20036;-82
2022/10/13 02:59:06;;;;;;;7.10;3.72;;;;;;;;;;5033552;28;20039;-82
2022/10/13 03:01:32;;;;;;;8.85;3.45;;;;;;;;;;5034494;28;20039;-82
2022/10/13 03:03:59;;;;;;;6.93;3.65;;;;;;;;;;5034015;28;20037;-82
2022/10/13 03:06:25;;;;;;;5.60;3.30;;;;;;;;;;5034372;28;20025;-82
2022/10/13 03:08:51;;;;;;;8.85;3.85;;;;;;;;;;5034322;28;20039;-82
2022/10/13 03:11:18;;;;;;;9.13;3.72;;;;;;;;;;5032981;28;20025;-82
2022/10/13 03:13:44;;;;;;;8.13;4.00;;;;;;;;;;5033929;28;20079;-82
2022/10/13 03:16:10;;;;;;;7.30;3.85;;;;;;;;;;5033711;28;20029;-82
2022/10/13 03:18:36;;;;;;;5.53;3.53;;;;;;;;;;5033779;28;20026;-81
2022/10/13 03:21:04;;;;;;;11.60;3.58;;;;;;;;;;5032716;28;20048;-82
2022/10/13 03:23:31;;;;;;;8.95;4.20;;;;;;;;;;5033778;28;20032;-82
2022/10/13 03:25:58;;;;;;;6.55;3.80;;;;;;;;;;5033910;28;20421;-82
2022/10/13 03:28:24;;;;;;;8.98;3.60;;;;;;;;;;5033865;28;20490;-82
2022/10/13 03:30:59;;;;;;;9.57;3.40;;;;;;;;;;5033886;28;20036;-82
2022/10/13 03:33:25;;;;;;;8.80;3.78;;;;;;;;;;5033574;28;20035;-82
2022/10/13 03:35:51;;;;;;;6.93;3.80;;;;;;;;;;5033454;28;20078;-82
2022/10/13 03:38:17;;;;;;;6.90;3.83;;;;;;;;;;5033841;28;20022;-82
2022/10/13 03:40:44;;;;;;;6.80;3.58;;;;;;;;;;5033514;28;20094;-82
2022/10/13 03:43:10;;;;;;;6.72;3.70;;;;;;;;;;5033904;28;20028;-82
2022/10/13 03:45:36;;;;;;;6.18;3.42;;;;;;;;;;5033536;28;20047;-82
2022/10/13 03:48:03;;;;;;;7.93;3.72;;;;;;;;;;5033422;28;20037;-83
2022/10/13 03:50:29;;;;;;;7.22;4.00;;;;;;;;;;5033366;28;20021;-83
2022/10/13 03:52:55;;;;;;;10.82;3.65;;;;;;;;;;5033379;28;20055;-82
2022/10/13 03:55:22;;;;;;;6.45;3.35;;;;;;;;;;5033289;28;20031;-82
2022/10/13 03:57:48;;;;;;;8.18;3.78;;;;;;;;;;5033719;28;20026;-82
2022/10/13 04:00:14;;;;;;;9.57;3.63;;;;;;;;;;5033077;28;20575;-82
2022/10/13 04:02:41;;;;;;;9.60;3.50;;;;;;;;;;5033029;28;20042;-82
2022/10/13 04:05:07;;;;;;;7.22;3.50;;;;;;;;;;5033092;28;20413;-83
2022/10/13 04:07:34;;;;;;;6.10;3.40;;;;;;;;;;5032908;28;20034;-82
2022/10/13 04:10:00;;;;;;;4.68;3.67;;;;;;;;;;5031633;28;20026;-82
2022/10/13 04:12:27;;;;;;;11.80;4.07;;;;;;;;;;5033037;28;20029;-82
2022/10/13 04:14:53;;;;;;;11.75;3.47;;;;;;;;;;5032344;28;20053;-82
2022/10/13 04:17:19;;;;;;;10.98;3.90;;;;;;;;;;5031747;28;20025;-82
2022/10/13 04:19:46;;;;;;;7.35;4.32;;;;;;;;;;5032997;28;20029;-82
2022/10/13 04:22:12;;;;;;;9.43;4.45;;;;;;;;;;5032677;28;20487;-83
2022/10/13 04:24:38;;;;;;;11.07;4.63;;;;;;;;;;5032652;28;20034;-82
2022/10/13 04:27:04;;;;;;;14.20;5.15;;;;;;;;;;5031076;28;20490;-82
2022/10/13 04:29:31;;;;;;;8.57;4.28;;;;;;;;;;5032111;28;20092;-82
2022/10/13 04:31:58;;;;;;;10.23;4.25;;;;;;;;;;5032576;28;20027;-82
2022/10/13 04:34:25;;;;;;;14.30;4.55;;;;;;;;;;5032707;28;20036;-82
2022/10/13 04:36:51;;;;;;;7.53;3.88;;;;;;;;;;5032663;28;20029;-83
2022/10/13 04:39:17;;;;;;;7.68;4.10;;;;;;;;;;5032536;28;20025;-82
2022/10/13 04:41:44;;;;;;;9.07;4.05;;;;;;;;;;5032669;28;20025;-83
2022/10/13 04:44:10;;;;;;;7.95;4.55;;;;;;;;;;5031942;28;20036;-82
2022/10/13 04:46:37;;;;;;;12.65;4.97;;;;;;;;;;5032340;28;20052;-82
2022/10/13 04:49:03;;;;;;;9.75;4.80;;;;;;;;;;5032249;28;20086;-82
2022/10/13 04:51:30;;;;;;;15.10;5.53;;;;;;;;;;5032295;28;20029;-82
2022/10/13 04:53:57;;;;;;;12.75;6.10;;;;;;;;;;5032290;28;20029;-82
2022/10/13 04:56:24;;;;;;;14.82;6.15;;;;;;;;;;5032656;28;20021;-82
2022/10/13 04:58:50;;;;;;;11.23;5.63;;;;;;;;;;5032303;28;20032;-82
2022/10/13 05:01:19;;;;;;;25.30;5.90;;;;;;;;;;5047636;28;20028;-83
2022/10/13 05:03:46;;;;;;;16.55;5.72;;;;;;;;;;5032527;28;20026;-82
2022/10/13 05:06:17;;;;;;;14.70;5.90;;;;;;;;;;5032247;28;20022;-83
2022/10/13 05:08:43;;;;;;;13.32;5.68;;;;;;;;;;5032153;28;20045;-82
2022/10/13 05:11:10;;;;;;;15.55;5.88;;;;;;;;;;5032145;28;20490;-82
2022/10/13 05:13:36;;;;;;;16.30;5.72;;;;;;;;;;5030346;28;20721;-82
2022/10/13 05:16:07;;;;;;;9.88;5.40;;;;;;;;;;5030956;28;20053;-82
2022/10/13 05:18:33;;;;;;;13.52;4.75;;;;;;;;;;5031932;28;20025;-82
2022/10/13 05:21:26;;;;;;;7.68;3.95;;;;;;;;;;5032038;28;20034;-83
2022/10/13 05:23:55;;;;;;;8.77;3.75;;;;;;;;;;5030991;28;20052;-82
2022/10/13 05:26:23;;;;;;;6.00;3.45;;;;;;;;;;5032128;28;20037;-83
2022/10/13 05:28:49;;;;;;;8.27;3.28;;;;;;;;;;5031428;28;20245;-83
2022/10/13 05:31:16;;;;;;;7.75;3.40;;;;;;;;;;5031919;28;20417;-82
2022/10/13 05:33:42;;;;;;;9.10;3.78;;;;;;;;;;5032517;28;20026;-82
2022/10/13 05:36:10;;;;;;;8.20;4.07;;;;;;;;;;5032008;28;20025;-82
2022/10/13 05:38:37;;;;;;;6.70;3.55;;;;;;;;;;5032328;28;20036;-83
2022/10/13 05:41:04;;;;;;;9.30;4.07;;;;;;;;;;5035751;28;20382;-82
2022/10/13 05:43:31;;;;;;;6.35;3.63;;;;;;;;;;5035683;28;20079;-83
2022/10/13 05:45:57;;;;;;;6.22;3.75;;;;;;;;;;5036010;28;20023;-82
2022/10/13 05:48:24;;;;;;;9.18;3.80;;;;;;;;;;5035748;28;20037;-82
2022/10/13 05:50:50;;;;;;;8.57;4.70;;;;;;;;;;5035899;28;20036;-82
2022/10/13 05:53:17;;;;;;;8.57;4.35;;;;;;;;;;5035780;28;20075;-82
2022/10/13 05:55:43;;;;;;;6.25;3.80;;;;;;;;;;5035684;28;20031;-82
2022/10/13 05:58:10;;;;;;;7.18;4.05;;;;;;;;;;5035768;28;20021;-83
2022/10/13 06:00:36;;;;;;;5.78;4.10;;;;;;;;;;5035734;28;20032;-82
2022/10/13 06:03:10;;;;;;;9.57;4.10;;;;;;;;;;5035758;28;20017;-82
2022/10/13 06:05:37;;;;;;;8.15;3.72;;;;;;;;;;5035497;28;20079;-81
2022/10/13 06:08:04;;;;;;;10.65;3.63;;;;;;;;;;5035796;28;20036;-82
2022/10/13 06:10:30;;;;;;;12.60;3.75;;;;;;;;;;5035248;28;20024;-81
2022/10/13 06:12:57;;;;;;;15.88;3.90;;;;;;;;;;5033625;28;20049;-81
2022/10/13 06:15:23;;;;;;;9.45;3.92;;;;;;;;;;5035425;28;20037;-83
2022/10/13 06:17:50;;;;;;;13.18;4.13;;;;;;;;;;5034271;28;20104;-82
2022/10/13 06:20:16;;;;;;;6.65;3.75;;;;;;;;;;5034091;28;20048;-83
2022/10/13 06:22:42;;;;;;;11.73;4.10;;;;;;;;;;5035219;28;20026;-82
2022/10/13 06:25:09;;;;;;;10.23;3.63;;;;;;;;;;5034832;28;20028;-82
2022/10/13 06:27:35;;;;;;;10.27;4.18;;;;;;;;;;5034629;28;20025;-83
2022/10/13 06:30:02;;;;;;;7.75;4.15;;;;;;;;;;5045512;28;20028;-83
2022/10/13 06:32:28;;;;;;;12.32;3.78;;;;;;;;;;5032340;28;20022;-82
2022/10/13 06:34:54;;;;;;;10.18;4.18;;;;;;;;;;5027896;28;20033;-82
2022/10/13 06:37:21;;;;;;;8.60;3.88;;;;;;;;;;5033857;28;20513;-82
2022/10/13 06:39:47;;;;;;;7.22;4.20;;;;;;;;;;5034207;28;20025;-82
2022/10/13 06:42:13;;;;;;;7.38;3.78;;;;;;;;;;5034539;28;20044;-82
2022/10/13 06:44:40;;;;;;;8.68;3.47;;;;;;;;;;5034408;28;20063;-83
2022/10/13 06:47:06;;;;;;;11.27;3.47;;;;;;;;;;5031562;28;20029;-79
2022/10/13 06:49:33;;;;;;;5.70;3.50;;;;;;;;;;5031299;28;20053;-82
2022/10/13 06:51:59;;;;;;;5.43;3.35;;;;;;;;;;5031451;28;20013;-82
2022/10/13 06:54:25;;;;;;;15.23;3.63;;;;;;;;;;5033246;28;20029;-82
2022/10/13 06:56:52;;;;;;;12.80;3.70;;;;;;;;;;5033601;28;20026;-81
2022/10/13 06:59:18;;;;;;;6.82;3.58;;;;;;;;;;5032830;28;20524;-82
2022/10/13 07:01:45;;;;;;;7.28;3.30;;;;;;;;;;5029973;28;20033;-83
2022/10/13 07:04:11;;;;;;;11.45;3.60;;;;;;;;;;5044063;28;20033;-84
2022/10/13 07:06:37;;;;;;;9.80;3.67;;;;;;;;;;5031567;28;20401;-83
2022/10/13 07:09:04;;;;;;;7.90;3.85;;;;;;;;;;5032267;28;20234;-82
2022/10/13 07:11:31;;;;;;;9.50;3.80;;;;;;;;;;5016751;28;20036;-82
2022/10/13 07:13:57;;;;;;;8.55;3.55;;;;;;;;;;5036735;28;20045;-80
2022/10/13 07:16:24;;;;;;;10.63;4.95;;;;;;;;;;5036598;28;20017;-82
2022/10/13 07:18:50;;;;;;;10.63;4.18;;;;;;;;;;5045005;28;20033;-82
2022/10/13 07:21:16;;;;;;;12.63;4.85;;;;;;;;;;5033088;28;20482;-83
2022/10/13 07:23:43;;;;;;;13.50;5.82;;;;;;;;;;5032063;28;20079;-82
2022/10/13 07:26:10;;;;;;;12.63;4.82;;;;;;;;;;5034880;28;20022;-81
2022/10/13 07:28:36;;;;;;;13.00;5.07;;;;;;;;;;5032603;28;20033;-80
2022/10/13 07:31:10;;;;;;;14.30;4.72;;;;;;;;;;5032271;28;20021;-79
2022/10/13 07:33:37;;;;;;;6.32;3.85;;;;;;;;;;5033193;28;20508;-80
2022/10/13 07:36:04;;;;;;;13.00;5.03;;;;;;;;;;5042923;28;20035;-80
2022/10/13 07:38:30;;;;;;;11.75;4.60;;;;;;;;;;5031750;28;20487;-80
2022/10/13 07:40:59;;;;;;;12.35;4.20;;;;;;;;;;5032037;28;20033;-79
2022/10/13 07:43:25;;;;;;;10.90;4.22;;;;;;;;;;5031897;28;20044;-80
2022/10/13 07:45:52;;;;;;;9.98;4.55;;;;;;;;;;5032373;28;20056;-80
2022/10/13 07:48:18;;;;;;;8.90;4.47;;;;;;;;;;5031965;28;20049;-80
2022/10/13 07:50:44;;;;;;;12.90;4.57;;;;;;;;;;5033281;28;20390;-79
2022/10/13 07:53:11;;;;;;;6.97;4.18;;;;;;;;;;5037023;28;20033;-79
2022/10/13 07:55:37;;;;;;;9.95;5.00;;;;;;;;;;5030444;28;20021;-80
2022/10/13 07:58:03;;;;;;;13.35;5.15;;;;;;;;;;5031878;28;20438;-80
2022/10/13 08:00:30;;;;;;;8.85;4.78;;;;;;;;;;5033650;28;20017;-79
2022/10/13 08:02:56;;;;;;;10.80;4.95;;;;;;;;;;5031147;28;20029;-79
2022/10/13 08:05:22;;;;;;;9.65;4.65;;;;;;;;;;5028509;28;20367;-79
2022/10/13 08:07:49;;;;;;;8.23;4.65;;;;;;;;;;5032054;28;20021;-80
2022/10/13 08:10:15;;;;;;;11.80;4.55;;;;;;;;;;5032928;28;20036;-79
2022/10/13 08:12:41;;;;;;;6.60;4.25;;;;;;;;;;5032434;28;20031;-79
2022/10/13 08:15:08;;;;;;;9.48;4.25;;;;;;;;;;5031239;28;20028;-79
2022/10/13 08:17:35;;;;;;;8.20;3.85;;;;;;;;;;5030100;28;20500;-79
2022/10/13 08:20:02;;;;;;;6.40;4.03;;;;;;;;;;5031364;28;20110;-80
2022/10/13 08:22:28;;;;;;;8.30;3.63;;;;;;;;;;5031050;28;20020;-79
2022/10/13 08:24:55;;;;;;;7.18;4.13;;;;;;;;;;5034697;28;20031;-79
2022/10/13 08:27:22;;;;;;;12.25;4.30;;;;;;;;;;5050956;28;20046;-79
2022/10/13 08:29:49;;;;;;;7.70;3.50;;;;;;;;;;5029405;28;20033;-79
2022/10/13 08:32:15;;;;;;;11.70;4.97;;;;;;;;;;5030063;28;20033;-79
2022/10/13 08:34:41;;;;;;;5.68;3.60;;;;;;;;;;5029539;28;20025;-79
2022/10/13 08:37:13;;;;;;;11.27;3.78;;;;;;;;;;5041517;28;20401;-79
2022/10/13 08:39:39;;;;;;;7.55;3.47;;;;;;;;;;5036772;28;20332;-79
2022/10/13 08:42:20;;;;;;;16.17;3.80;;;;;;;;;;5031303;28;20387;-79
2022/10/13 08:44:47;;;;;;;;;;;;;;;;;;5031206;28;20024;-79
2022/10/13 08:47:32;;;;;;;8.80;3.20;;;;;;;;;;5031190;28;19909;-80
2022/10/13 08:50:00;;;;;;;8.10;3.40;;;;;;;;;;5046122;28;20045;-80
2022/10/13 08:52:27;;;;;;;5.70;3.28;;;;;;;;;;5030484;28;20106;-79
2022/10/13 08:54:55;;;;;;;6.72;3.20;;;;;;;;;;5030958;28;20029;-80
2022/10/13 08:57:21;;;;;;;5.75;3.05;;;;;;;;;;5028651;28;20025;-80
2022/10/13 08:59:48;;;;;;;5.82;3.35;;;;;;;;;;5030132;28;20022;-80
2022/10/13 09:02:26;;;;;;;10.45;2.90;;;;;;;;;;5029696;28;20041;-79
2022/10/13 09:04:53;;;;;;;8.00;3.05;;;;;;;;;;5030174;28;20394;-80
2022/10/13 09:07:29;;;;;;;5.97;3.03;;;;;;;;;;5030682;28;20024;-78
2022/10/13 09:09:55;;;;;;;7.22;2.75;;;;;;;;;;5030134;28;20044;-77
2022/10/13 09:12:25;;;;;;;8.63;2.70;;;;;;;;;;5030077;28;20508;-78
2022/10/13 09:15:00;;;;;;;5.07;2.63;;;;;;;;;;5030202;28;20049;-79
2022/10/13 09:17:26;;;;;;;6.95;2.90;;;;;;;;;;5046657;28;20033;-79
2022/10/13 09:20:11;;;;;;;6.60;2.65;;;;;;;;;;5044215;28;20031;-81
2022/10/13 09:22:39;;;;;;;7.00;2.80;;;;;;;;;;5030508;28;20038;-79
2022/10/13 09:25:08;;;;;;;8.02;2.95;;;;;;;;;;5030352;28;20409;-79
2022/10/13 09:27:45;;;;;;;10.15;3.40;;;;;;;;;;5030171;28;20406;-78
2022/10/13 09:30:24;;;;;;;8.40;2.70;;;;;;;;;;5030002;28;20038;-79
2022/10/13 09:32:51;;;;;;;9.20;3.25;;;;;;;;;;5033144;28;20295;-78
2022/10/13 09:35:20;;;;;;;5.95;2.95;;;;;;;;;;5049558;28;20029;-79
2022/10/13 09:38:00;;;;;;;5.13;3.03;;;;;;;;;;5036458;28;20030;-81
2022/10/13 09:40:30;;;;;;;7.95;2.95;;;;;;;;;;5030344;28;20037;-78
2022/10/13 09:42:57;;;;;;;7.75;3.05;;;;;;;;;;5030411;28;20452;-78
2022/10/13 09:45:24;;;;;;;7.20;2.63;;;;;;;;;;5029876;28;20491;-80
2022/10/13 09:47:52;;;;;;;9.75;3.47;;;;;;;;;;5029551;28;20139;-78
2022/10/13 09:50:22;;;;;;;7.60;3.08;;;;;;;;;;5036537;28;20048;-78
2022/10/13 09:52:49;;;;;;;5.22;2.50;;;;;;;;;;5036931;28;20035;-78
2022/10/13 09:55:34;;;;;;;6.40;3.05;;;;;;;;;;5029921;28;20029;-78
2022/10/13 09:58:30;;;;;;;8.70;2.85;;;;;;;;;;5029328;28;20025;-78
2022/10/13 10:00:57;;;;;;;6.25;2.63;;;;;;;;;;5016288;28;20534;-78
2022/10/13 10:03:29;;;;;;;7.28;2.67;;;;;;;;;;5027646;28;20040;-78
2022/10/13 10:05:56;;;;;;;9.55;2.70;;;;;;;;;;5028524;28;20502;-78
2022/10/13 10:08:44;;;;;;;5.15;2.78;;;;;;;;;;5029479;28;20044;-78
2022/10/13 10:11:18;;;;;;;7.80;2.85;;;;;;;;;;5030003;28;20030;-78
2022/10/13 10:13:45;;;;;;;9.77;3.08;;;;;;;;;;5029895;28;20050;-79
2022/10/13 10:16:19;;;;;;;6.68;2.53;;;;;;;;;;5030094;28;20021;-78
2022/10/13 10:18:49;;;;;;;4.38;2.50;;;;;;;;;;5029002;28;20043;-78
2022/10/13 10:21:34;;;;;;;10.40;3.22;;;;;;;;;;5029746;28;20025;-78
2022/10/13 10:24:09;;;;;;;11.50;2.88;;;;;;;;;;5029672;28;20030;-78
2022/10/13 10:26:48;;;;;;;5.00;2.65;;;;;;;;;;5033308;28;20501;-79
2022/10/13 10:29:14;;;;;;;12.80;2.90;;;;;;;;;;5033336;28;20387;-78
2022/10/13 10:31:44;;;;;;;5.53;2.95;;;;;;;;;;5032154;28;20034;-78
2022/10/13 10:34:29;;;;;;;9.77;2.97;;;;;;;;;;5048661;28;20040;-78
2022/10/13 10:37:04;;;;;;;8.65;3.22;;;;;;;;;;5033472;28;20025;-78
2022/10/13 10:39:36;;;;;;;8.15;3.75;;;;;;;;;;5033501;28;20034;-78
2022/10/13 10:42:02;;;;;;;10.00;3.00;;;;;;;;;;5033628;28;20029;-79
2022/10/13 10:44:49;;;;;;;7.57;3.20;;;;;;;;;;5031883;28;20082;-78
2022/10/13 10:47:20;;;;;;;7.40;2.85;;;;;;;;;;5032802;28;20040;-78
2022/10/13 10:49:47;;;;;;;6.40;2.95;;;;;;;;;;5033106;28;20033;-78
2022/10/13 10:52:20;;;;;;;11.43;3.30;;;;;;;;;;5032303;28;20387;-79
2022/10/13 10:54:50;;;;;;;7.40;2.80;;;;;;;;;;5033194;28;20527;-78
2022/10/13 10:57:21;;;;;;;8.05;2.90;;;;;;;;;;5032930;28;20036;-79
2022/10/13 10:59:47;;;;;;;;;;;;;;;;;;5033327;28;20034;-78
2022/10/13 11:02:32;;;;;;;10.18;3.08;;;;;;;;;;5032618;28;19905;-77
2022/10/13 11:04:59;;;;;;;7.05;3.03;;;;;;;;;;5033076;28;20025;-79
2022/10/13 11:07:26;;;;;;;7.60;2.80;;;;;;;;;;5032714;28;20543;-79
2022/10/13 11:09:53;;;;;;;6.32;2.47;;;;;;;;;;5032579;28;20502;-79
2022/10/13 11:12:20;;;;;;;5.05;2.67;;;;;;;;;;5032619;28;20371;-78
2022/10/13 11:14:46;;;;;;;4.85;2.80;;;;;;;;;;5033024;28;20049;-78
2022/10/13 11:17:26;;;;;;;7.80;2.78;;;;;;;;;;5032147;28;20037;-78
2022/10/13 11:19:53;;;;;;;11.75;3.42;;;;;;;;;;5032582;28;20033;-78
2022/10/13 11:22:21;;;;;;;5.13;2.88;;;;;;;;;;5032591;28;20017;-76
2022/10/13 11:24:47;;;;;;;9.85;3.15;;;;;;;;;;5032655;28;20021;-79
2022/10/13 11:27:13;;;;;;;5.75;3.00;;;;;;;;;;5032441;28;20520;-79
2022/10/13 11:29:46;;;;;;;8.20;3.35;;;;;;;;;;5032263;28;20045;-79
2022/10/13 11:32:40;;;;;;;7.00;2.70;;;;;;;;;;5032565;28;20417;-79
2022/10/13 11:35:09;;;;;;;7.55;3.00;;;;;;;;;;5032743;28;20043;-77
2022/10/13 11:37:39;;;;;;;8.55;2.92;;;;;;;;;;5027853;28;20024;-80
2022/10/13 11:40:16;;;;;;;6.20;2.83;;;;;;;;;;5033050;28;20490;-78
2022/10/13 11:42:42;;;;;;;9.07;2.70;;;;;;;;;;5031808;28;20498;-79
2022/10/13 11:45:12;;;;;;;6.78;3.00;;;;;;;;;;5034969;28;20025;-79
2022/10/13 11:48:01;;;;;;;6.43;3.05;;;;;;;;;;5042738;28;20405;-80
2022/10/13 11:50:43;;;;;;;8.70;2.78;;;;;;;;;;5048101;28;20489;-79
2022/10/13 11:53:17;;;;;;;14.38;2.83;;;;;;;;;;5033788;28;20036;-80
2022/10/13 11:55:46;;;;;;;9.93;3.03;;;;;;;;;;5031594;28;20068;-80
2022/10/13 11:58:19;;;;;;;7.15;2.70;;;;;;;;;;5031733;28;20017;-79
2022/10/13 12:00:55;;;;;;;11.15;2.70;;;;;;;;;;5044647;28;20024;-79
2022/10/13 12:03:27;;;;;;;8.52;2.70;;;;;;;;;;5024858;28;20044;-79
2022/10/13 12:05:56;;;;;;;8.05;2.70;;;;;;;;;;5038490;28;20366;-79
2022/10/13 12:08:22;;;;;;;11.18;3.10;;;;;;;;;;5033885;28;20037;-77
2022/10/13 12:10:56;;;;;;;11.57;2.42;;;;;;;;;;5031056;28;20035;-77
2022/10/13 12:13:26;;;;;;;9.50;3.70;;;;;;;;;;5030866;28;20524;-77
2022/10/13 12:16:02;;;;;;;12.82;3.67;;;;;;;;;;5030451;28;20505;-78
2022/10/13 12:18:32;;;;;;;8.10;3.13;;;;;;;;;;5032320;28;20021;-77
2022/10/13 12:21:01;;;;;;;9.05;2.75;;;;;;;;;;5029726;28;20030;-78
2022/10/13 12:23:28;;;;;;;9.85;3.55;;;;;;;;;;5031581;28;20040;-78
2022/10/13 12:25:58;;;;;;;6.22;2.97;;;;;;;;;;5030501;28;20036;-78
2022/10/13 12:28:27;;;;;;;6.70;3.13;;;;;;;;;;5033779;28;20033;-75
2022/10/13 12:30:54;;;;;;;11.52;2.90;;;;;;;;;;5030490;28;20041;-75
2022/10/13 12:33:28;;;;;;;7.25;2.72;;;;;;;;;;5033624;28;20487;-75
2022/10/13 12:35:55;;;;;;;9.65;2.92;;;;;;;;;;5030712;28;20041;-75
2022/10/13 12:38:21;;;;;;;8.85;2.58;;;;;;;;;;5030747;28;20025;-76
2022/10/13 12:40:49;;;;;;;8.73;2.78;;;;;;;;;;5041856;28;20035;-76
2022/10/13 12:43:18;;;;;;;7.97;2.70;;;;;;;;;;5048382;28;20088;-76
2022/10/13 12:45:44;;;;;;;6.47;2.25;;;;;;;;;;5029838;28;20397;-76
2022/10/13 12:48:29;;;;;;;7.15;2.63;;;;;;;;;;5029948;28;20097;-76
2022/10/13 12:51:06;;;;;;;8.68;2.65;;;;;;;;;;5029935;28;20037;-75
2022/10/13 12:53:32;;;;;;;6.05;1.90;;;;;;;;;;5030539;28;20016;-76
2022/10/13 12:56:00;;;;;;;7.68;2.60;;;;;;;;;;5030549;28;20037;-76
2022/10/13 12:58:28;;;;;;;9.23;2.17;;;;;;;;;;5029719;28;20107;-76
2022/10/13 13:01:04;;;;;;;6.13;2.30;;;;;;;;;;5030587;28;20040;-75
2022/10/13 13:03:30;;;;;;;6.53;2.13;;;;;;;;;;5030969;28;20035;-75
2022/10/13 13:06:15;;;;;;;5.32;2.10;;;;;;;;;;5030586;28;20494;-75
2022/10/13 13:08:42;;;;;;;12.25;2.60;;;;;;;;;;5030820;28;20040;-76
2022/10/13 13:11:22;;;;;;;7.25;2.28;;;;;;;;;;5030670;28;20439;-76
2022/10/13 13:13:48;;;;;;;10.15;2.25;;;;;;;;;;5031378;28;20049;-75
2022/10/13 13:16:16;;;;;;;6.55;2.20;;;;;;;;;;5030959;28;20034;-75
2022/10/13 13:18:43;;;;;;;7.63;2.47;;;;;;;;;;5030670;28;20128;-75
2022/10/13 13:21:11;;;;;;;13.25;2.33;;;;;;;;;;5030879;28;20022;-75
2022/10/13 13:23:37;;;;;;;11.07;2.33;;;;;;;;;;5030743;28;20030;-75
2022/10/13 13:26:14;;;;;;;8.98;2.45;;;;;;;;;;5030258;28;20029;-75
2022/10/13 13:28:47;;;;;;;8.32;2.40;;;;;;;;;;5029294;28;20509;-79
2022/10/13 13:31:14;;;;;;;12.00;2.28;;;;;;;;;;5036404;28;20044;-78
2022/10/13 13:33:40;;;;;;;12.65;2.47;;;;;;;;;;5050900;28;20029;-77
2022/10/13 13:36:15;;;;;;;7.00;2.22;;;;;;;;;;5050022;28;20068;-77
2022/10/13 13:38:44;;;;;;;8.13;2.45;;;;;;;;;;5050172;28;20059;-78
2022/10/13 13:41:11;;;;;;;10.13;2.60;;;;;;;;;;5049756;28;20497;-78
2022/10/13 13:43:38;;;;;;;7.45;2.97;;;;;;;;;;5040357;28;20017;-77
2022/10/13 13:46:05;;;;;;;9.82;2.20;;;;;;;;;;5030240;28;20026;-78
2022/10/13 13:48:31;;;;;;;9.15;2.70;;;;;;;;;;5033441;28;20029;-79
2022/10/13 13:50:58;;;;;;;8.18;2.55;;;;;;;;;;5032200;28;20381;-78
2022/10/13 13:53:24;;;;;;;7.57;2.63;;;;;;;;;;5030161;28;20547;-79
2022/10/13 13:55:51;;;;;;;9.82;2.70;;;;;;;;;;5029821;28;20022;-79
2022/10/13 13:58:17;;;;;;;11.43;2.60;;;;;;;;;;5030461;28;20045;-79
2022/10/13 14:00:43;;;;;;;9.82;2.70;;;;;;;;;;5032441;28;20036;-79
2022/10/13 14:03:10;;;;;;;12.27;2.50;;;;;;;;;;5033884;28;20078;-79
2022/10/13 14:05:38;;;;;;;11.38;3.15;;;;;;;;;;5033932;28;20061;-77
2022/10/13 14:08:05;;;;;;;6.40;2.42;;;;;;;;;;5033521;28;20025;-78
2022/10/13 14:10:31;;;;;;;13.48;3.03;;;;;;;;;;5033715;28;20033;-77
2022/10/13 14:12:58;;;;;;;12.73;3.05;;;;;;;;;;5033554;28;20059;-78
2022/10/13 14:15:24;;;;;;;13.05;3.08;;;;;;;;;;5033539;28;20032;-79
2022/10/13 14:17:53;;;;;;;11.80;3.33;;;;;;;;;;5033522;28;20051;-78
2022/10/13 14:20:21;;;;;;;9.23;3.33;;;;;;;;;;5033673;28;20028;-77
2022/10/13 14:22:47;;;;;;;14.60;2.97;;;;;;;;;;5034071;28;20401;-78
2022/10/13 14:25:13;;;;;;;10.20;3.00;;;;;;;;;;5032460;28;20554;-78
2022/10/13 14:27:40;;;;;;;6.90;3.10;;;;;;;;;;5033704;28;20045;-77
2022/10/13 14:30:07;;;;;;;11.23;2.90;;;;;;;;;;5033141;28;20071;-78
2022/10/13 14:32:34;;;;;;;10.25;2.50;;;;;;;;;;5028384;28;20009;-77
2022/10/13 14:35:00;;;;;;;14.05;2.83;;;;;;;;;;5032323;28;20029;-78
2022/10/13 14:37:27;;;;;;;10.18;2.75;;;;;;;;;;5032512;28;20017;-78
2022/10/13 14:39:53;;;;;;;10.02;2.95;;;;;;;;;;5032567;28;20432;-77
2022/10/13 14:42:19;;;;;;;10.32;3.08;;;;;;;;;;5032273;28;20056;-77
2022/10/13 14:44:46;;;;;;;8.32;2.40;;;;;;;;;;5031038;28;20028;-78
2022/10/13 14:47:12;;;;;;;13.00;3.00;;;;;;;;;;5031627;28;20513;-78
2022/10/13 14:49:38;;;;;;;10.95;3.00;;;;;;;;;;5022488;28;20506;-78
2022/10/13 14:52:05;;;;;;;8.15;2.72;;;;;;;;;;5031926;28;20490;-78